sensor_id;sensor_type;location;lat;lon;timestamp;P1;durP1;ratioP1;P2;durP2;ratioP2
46334;SDS011;32051;48.882;9.210;2022-10-04T00:00:58;12.43;;;8.60;;
46334;SDS011;32051;48.882;9.210;2022-10-04T00:03:33;21.75;;;10.20;;
46334;SDS011;32051;48.882;9.210;2022-10-04T00:06:00;16.00;;;9.20;;
46334;SDS011;32051;48.882;9.210;2022-10-04T00:08:29;17.98;;;9.32;;
46334;SDS011;32051;48.882;9.210;2022-10-04T00:11:04;25.27;;;9.75;;
46334;SDS011;32051;48.882;9.210;2022-10-04T00:13:30;13.43;;;8.93;;
46334;SDS011;32051;48.882;9.210;2022-10-04T00:15:57;14.38;;;9.48;;
46334;SDS011;32051;48.882;9.210;2022-10-04T00:25:48;13.10;;;8.68;;
46334;SDS011;32051;48.882;9.210;2022-10-04T00:28:22;14.77;;;8.38;;
46334;SDS011;32051;48.882;9.210;2022-10-04T00:33:37;16.50;;;8.40;;
46334;SDS011;32051;48.882;9.210;2022-10-04T00:46:45;11.52;;;8.20;;
46334;SDS011;32051;48.882;9.210;2022-10-04T00:49:13;18.85;;;8.25;;
46334;SDS011;32051;48.882;9.210;2022-10-04T00:51:43;10.45;;;7.75;;
46334;SDS011;32051;48.882;9.210;2022-10-04T00:54:21;11.55;;;7.75;;
46334;SDS011;32051;48.882;9.210;2022-10-04T00:56:54;14.55;;;7.78;;
46334;SDS011;32051;48.882;9.210;2022-10-04T01:01:51;9.25;;;7.60;;
46334;SDS011;32051;48.882;9.210;2022-10-04T01:04:30;7.57;;;6.85;;
46334;SDS011;32051;48.882;9.210;2022-10-04T01:06:59;6.78;;;6.18;;
46334;SDS011;32051;48.882;9.210;2022-10-04T01:09:26;6.10;;;5.32;;
46334;SDS011;32051;48.882;9.210;2022-10-04T01:11:57;7.60;;;6.20;;
46334;SDS011;32051;48.882;9.210;2022-10-04T01:14:28;6.65;;;5.93;;
46334;SDS011;32051;48.882;9.210;2022-10-04T01:16:55;7.93;;;5.78;;
46334;SDS011;32051;48.882;9.210;2022-10-04T01:24:23;7.18;;;5.97;;
46334;SDS011;32051;48.882;9.210;2022-10-04T01:26:49;15.75;;;6.75;;
46334;SDS011;32051;48.882;9.210;2022-10-04T01:29:17;9.57;;;7.07;;
46334;SDS011;32051;48.882;9.210;2022-10-04T01:31:50;7.60;;;6.90;;
46334;SDS011;32051;48.882;9.210;2022-10-04T01:34:17;12.02;;;6.88;;
46334;SDS011;32051;48.882;9.210;2022-10-04T01:36:44;9.57;;;6.55;;
46334;SDS011;32051;48.882;9.210;2022-10-04T01:39:12;12.38;;;5.68;;
46334;SDS011;32051;48.882;9.210;2022-10-04T01:41:43;9.35;;;6.18;;
46334;SDS011;32051;48.882;9.210;2022-10-04T01:44:16;9.68;;;6.47;;
46334;SDS011;32051;48.882;9.210;2022-10-04T01:46:44;10.55;;;6.18;;
46334;SDS011;32051;48.882;9.210;2022-10-04T01:49:11;11.50;;;5.82;;
46334;SDS011;32051;48.882;9.210;2022-10-04T01:51:43;6.47;;;6.05;;
46334;SDS011;32051;48.882;9.210;2022-10-04T01:54:11;6.47;;;5.97;;
46334;SDS011;32051;48.882;9.210;2022-10-04T01:56:40;6.78;;;5.97;;
46334;SDS011;32051;48.882;9.210;2022-10-04T01:59:12;8.55;;;6.45;;
46334;SDS011;32051;48.882;9.210;2022-10-04T02:01:47;7.68;;;5.80;;
46334;SDS011;32051;48.882;9.210;2022-10-04T02:04:22;6.43;;;5.75;;
46334;SDS011;32051;48.882;9.210;2022-10-04T02:06:50;9.10;;;5.70;;
46334;SDS011;32051;48.882;9.210;2022-10-04T02:09:33;5.95;;;5.20;;
46334;SDS011;32051;48.882;9.210;2022-10-04T02:12:00;6.15;;;5.57;;
46334;SDS011;32051;48.882;9.210;2022-10-04T02:14:27;5.70;;;5.15;;
46334;SDS011;32051;48.882;9.210;2022-10-04T02:16:55;9.23;;;5.45;;
46334;SDS011;32051;48.882;9.210;2022-10-04T02:19:22;11.07;;;5.30;;
46334;SDS011;32051;48.882;9.210;2022-10-04T02:21:50;8.45;;;5.03;;
46334;SDS011;32051;48.882;9.210;2022-10-04T02:24:16;8.73;;;6.10;;
46334;SDS011;32051;48.882;9.210;2022-10-04T02:26:47;8.65;;;5.22;;
46334;SDS011;32051;48.882;9.210;2022-10-04T02:29:13;9.25;;;6.53;;
46334;SDS011;32051;48.882;9.210;2022-10-04T02:31:39;23.33;;;6.20;;
46334;SDS011;32051;48.882;9.210;2022-10-04T02:34:24;5.20;;;4.70;;
46334;SDS011;32051;48.882;9.210;2022-10-04T02:36:50;5.82;;;5.13;;
46334;SDS011;32051;48.882;9.210;2022-10-04T02:39:27;6.68;;;6.07;;
46334;SDS011;32051;48.882;9.210;2022-10-04T02:41:56;5.70;;;5.30;;
46334;SDS011;32051;48.882;9.210;2022-10-04T02:44:24;6.80;;;6.20;;
46334;SDS011;32051;48.882;9.210;2022-10-04T02:52:07;8.73;;;7.40;;
46334;SDS011;32051;48.882;9.210;2022-10-04T02:57:33;12.77;;;7.72;;
46334;SDS011;32051;48.882;9.210;2022-10-04T03:00:01;8.43;;;7.57;;
46334;SDS011;32051;48.882;9.210;2022-10-04T03:02:28;12.57;;;8.13;;
46334;SDS011;32051;48.882;9.210;2022-10-04T03:04:58;7.97;;;7.25;;
46334;SDS011;32051;48.882;9.210;2022-10-04T03:07:24;8.45;;;7.55;;
46334;SDS011;32051;48.882;9.210;2022-10-04T03:09:51;7.25;;;6.57;;
46334;SDS011;32051;48.882;9.210;2022-10-04T03:12:17;11.82;;;7.78;;
46334;SDS011;32051;48.882;9.210;2022-10-04T03:14:44;10.68;;;7.65;;
46334;SDS011;32051;48.882;9.210;2022-10-04T03:17:12;7.78;;;7.07;;
46334;SDS011;32051;48.882;9.210;2022-10-04T03:19:40;9.48;;;8.40;;
46334;SDS011;32051;48.882;9.210;2022-10-04T03:22:07;12.93;;;8.90;;
46334;SDS011;32051;48.882;9.210;2022-10-04T03:24:50;7.50;;;6.80;;
46334;SDS011;32051;48.882;9.210;2022-10-04T03:27:21;6.38;;;5.72;;
46334;SDS011;32051;48.882;9.210;2022-10-04T03:29:49;6.15;;;5.55;;
46334;SDS011;32051;48.882;9.210;2022-10-04T03:32:15;5.70;;;5.15;;
46334;SDS011;32051;48.882;9.210;2022-10-04T03:34:52;5.78;;;5.35;;
46334;SDS011;32051;48.882;9.210;2022-10-04T03:37:20;7.75;;;5.68;;
46334;SDS011;32051;48.882;9.210;2022-10-04T03:39:47;7.88;;;5.72;;
46334;SDS011;32051;48.882;9.210;2022-10-04T03:42:21;6.32;;;5.72;;
46334;SDS011;32051;48.882;9.210;2022-10-04T03:44:48;6.82;;;6.13;;
46334;SDS011;32051;48.882;9.210;2022-10-04T03:47:16;6.07;;;5.40;;
46334;SDS011;32051;48.882;9.210;2022-10-04T03:49:44;12.65;;;6.53;;
46334;SDS011;32051;48.882;9.210;2022-10-04T03:52:15;6.57;;;5.47;;
46334;SDS011;32051;48.882;9.210;2022-10-04T03:54:42;6.22;;;5.72;;
46334;SDS011;32051;48.882;9.210;2022-10-04T03:57:08;6.53;;;6.05;;
46334;SDS011;32051;48.882;9.210;2022-10-04T03:59:35;6.40;;;5.78;;
46334;SDS011;32051;48.882;9.210;2022-10-04T04:07:27;7.15;;;6.07;;
46334;SDS011;32051;48.882;9.210;2022-10-04T04:10:02;6.93;;;5.83;;
46334;SDS011;32051;48.882;9.210;2022-10-04T04:15:02;7.85;;;7.05;;
46334;SDS011;32051;48.882;9.210;2022-10-04T04:17:35;9.27;;;6.78;;
46334;SDS011;32051;48.882;9.210;2022-10-04T04:20:03;7.68;;;6.68;;
46334;SDS011;32051;48.882;9.210;2022-10-04T04:22:32;7.53;;;6.20;;
46334;SDS011;32051;48.882;9.210;2022-10-04T04:24:59;14.20;;;7.18;;
46334;SDS011;32051;48.882;9.210;2022-10-04T04:27:25;8.50;;;6.43;;
46334;SDS011;32051;48.882;9.210;2022-10-04T04:29:53;7.75;;;6.70;;
46334;SDS011;32051;48.882;9.210;2022-10-04T04:32:21;8.73;;;6.28;;
46334;SDS011;32051;48.882;9.210;2022-10-04T04:34:50;8.30;;;6.30;;
46334;SDS011;32051;48.882;9.210;2022-10-04T04:37:17;9.52;;;6.55;;
46334;SDS011;32051;48.882;9.210;2022-10-04T04:39:43;9.68;;;6.72;;
46334;SDS011;32051;48.882;9.210;2022-10-04T04:42:17;8.05;;;6.75;;
46334;SDS011;32051;48.882;9.210;2022-10-04T04:44:52;6.45;;;5.88;;
46334;SDS011;32051;48.882;9.210;2022-10-04T04:47:25;7.72;;;6.45;;
46334;SDS011;32051;48.882;9.210;2022-10-04T04:49:52;10.10;;;6.97;;
46334;SDS011;32051;48.882;9.210;2022-10-04T04:52:18;7.07;;;6.45;;
46334;SDS011;32051;48.882;9.210;2022-10-04T04:54:46;7.95;;;6.40;;
46334;SDS011;32051;48.882;9.210;2022-10-04T04:57:15;8.00;;;7.20;;
46334;SDS011;32051;48.882;9.210;2022-10-04T04:59:44;6.80;;;6.20;;
46334;SDS011;32051;48.882;9.210;2022-10-04T05:02:31;7.25;;;6.55;;
46334;SDS011;32051;48.882;9.210;2022-10-04T05:05:09;6.68;;;6.05;;
46334;SDS011;32051;48.882;9.210;2022-10-04T05:07:35;7.53;;;6.80;;
46334;SDS011;32051;48.882;9.210;2022-10-04T05:10:01;13.30;;;7.22;;
46334;SDS011;32051;48.882;9.210;2022-10-04T05:12:43;7.38;;;6.68;;
46334;SDS011;32051;48.882;9.210;2022-10-04T05:15:11;7.93;;;7.13;;
46334;SDS011;32051;48.882;9.210;2022-10-04T05:17:37;8.57;;;6.60;;
46334;SDS011;32051;48.882;9.210;2022-10-04T05:20:03;9.07;;;6.82;;
46334;SDS011;32051;48.882;9.210;2022-10-04T05:22:29;9.40;;;6.78;;
46334;SDS011;32051;48.882;9.210;2022-10-04T05:24:57;8.55;;;7.05;;
46334;SDS011;32051;48.882;9.210;2022-10-04T05:27:31;11.45;;;6.07;;
46334;SDS011;32051;48.882;9.210;2022-10-04T05:30:04;14.98;;;7.40;;
46334;SDS011;32051;48.882;9.210;2022-10-04T05:32:33;9.07;;;6.05;;
46334;SDS011;32051;48.882;9.210;2022-10-04T05:35:12;8.50;;;7.03;;
46334;SDS011;32051;48.882;9.210;2022-10-04T05:40:28;6.80;;;5.93;;
46334;SDS011;32051;48.882;9.210;2022-10-04T05:42:56;6.63;;;5.82;;
46334;SDS011;32051;48.882;9.210;2022-10-04T05:45:25;5.88;;;5.47;;
46334;SDS011;32051;48.882;9.210;2022-10-04T05:47:52;10.10;;;6.45;;
46334;SDS011;32051;48.882;9.210;2022-10-04T05:50:25;6.22;;;5.72;;
46334;SDS011;32051;48.882;9.210;2022-10-04T05:52:53;6.53;;;5.93;;
46334;SDS011;32051;48.882;9.210;2022-10-04T05:56:21;6.13;;;5.63;;
46334;SDS011;32051;48.882;9.210;2022-10-04T05:58:24;5.85;;;5.15;;
46334;SDS011;32051;48.882;9.210;2022-10-04T06:03:46;7.93;;;5.55;;
46334;SDS011;32051;48.882;9.210;2022-10-04T06:06:26;6.10;;;5.70;;
46334;SDS011;32051;48.882;9.210;2022-10-04T06:14:21;5.05;;;4.75;;
46334;SDS011;32051;48.882;9.210;2022-10-04T06:24:37;6.10;;;5.60;;
46334;SDS011;32051;48.882;9.210;2022-10-04T06:30:35;5.47;;;4.95;;
46334;SDS011;32051;48.882;9.210;2022-10-04T06:37:50;7.80;;;5.35;;
46334;SDS011;32051;48.882;9.210;2022-10-04T06:43:22;5.80;;;5.20;;
46334;SDS011;32051;48.882;9.210;2022-10-04T06:48:54;5.43;;;4.93;;
46334;SDS011;32051;48.882;9.210;2022-10-04T06:58:45;8.25;;;5.90;;
46334;SDS011;32051;48.882;9.210;2022-10-04T07:06:04;6.72;;;5.75;;
46334;SDS011;32051;48.882;9.210;2022-10-04T07:14:12;11.63;;;6.32;;
46334;SDS011;32051;48.882;9.210;2022-10-04T07:21:48;6.80;;;5.53;;
46334;SDS011;32051;48.882;9.210;2022-10-04T07:24:26;8.25;;;7.00;;
46334;SDS011;32051;48.882;9.210;2022-10-04T07:26:53;11.93;;;6.18;;
46334;SDS011;32051;48.882;9.210;2022-10-04T07:29:32;9.40;;;6.35;;
46334;SDS011;32051;48.882;9.210;2022-10-04T07:34:30;6.97;;;5.32;;
46334;SDS011;32051;48.882;9.210;2022-10-04T07:36:58;6.03;;;5.00;;
46334;SDS011;32051;48.882;9.210;2022-10-04T07:39:28;8.02;;;5.63;;
46334;SDS011;32051;48.882;9.210;2022-10-04T07:44:40;5.28;;;4.88;;
46334;SDS011;32051;48.882;9.210;2022-10-04T07:47:21;6.32;;;4.25;;
46334;SDS011;32051;48.882;9.210;2022-10-04T07:49:49;6.85;;;4.05;;
46334;SDS011;32051;48.882;9.210;2022-10-04T07:57:36;4.32;;;3.92;;
46334;SDS011;32051;48.882;9.210;2022-10-04T08:00:10;5.38;;;3.58;;
46334;SDS011;32051;48.882;9.210;2022-10-04T08:05:22;3.40;;;3.20;;
46334;SDS011;32051;48.882;9.210;2022-10-04T08:08:01;6.95;;;3.17;;
46334;SDS011;32051;48.882;9.210;2022-10-04T08:10:35;13.23;;;4.50;;
46334;SDS011;32051;48.882;9.210;2022-10-04T08:13:15;5.22;;;3.63;;
46334;SDS011;32051;48.882;9.210;2022-10-04T08:15:44;4.03;;;3.60;;
46334;SDS011;32051;48.882;9.210;2022-10-04T08:20:56;8.05;;;3.47;;
46334;SDS011;32051;48.882;9.210;2022-10-04T08:31:56;7.97;;;3.20;;
46334;SDS011;32051;48.882;9.210;2022-10-04T08:37:13;3.65;;;3.35;;
46334;SDS011;32051;48.882;9.210;2022-10-04T08:39:53;3.63;;;3.33;;
46334;SDS011;32051;48.882;9.210;2022-10-04T08:50:36;7.55;;;4.20;;
46334;SDS011;32051;48.882;9.210;2022-10-04T08:55:51;6.82;;;4.03;;
46334;SDS011;32051;48.882;9.210;2022-10-04T09:14:49;5.35;;;3.55;;
46334;SDS011;32051;48.882;9.210;2022-10-04T09:17:20;7.18;;;2.75;;
46334;SDS011;32051;48.882;9.210;2022-10-04T09:30:18;7.13;;;3.80;;
46334;SDS011;32051;48.882;9.210;2022-10-04T09:32:57;8.30;;;3.20;;
46334;SDS011;32051;48.882;9.210;2022-10-04T09:40:34;5.72;;;2.83;;
46334;SDS011;32051;48.882;9.210;2022-10-04T09:43:11;8.43;;;3.55;;
46334;SDS011;32051;48.882;9.210;2022-10-04T09:48:29;3.70;;;2.60;;
46334;SDS011;32051;48.882;9.210;2022-10-04T09:51:18;6.50;;;2.80;;
46334;SDS011;32051;48.882;9.210;2022-10-04T09:53:57;4.05;;;2.53;;
46334;SDS011;32051;48.882;9.210;2022-10-04T09:56:29;5.72;;;3.25;;
46334;SDS011;32051;48.882;9.210;2022-10-04T09:59:05;6.13;;;2.08;;
46334;SDS011;32051;48.882;9.210;2022-10-04T10:07:09;4.85;;;2.75;;
46334;SDS011;32051;48.882;9.210;2022-10-04T10:09:56;11.82;;;2.80;;
46334;SDS011;32051;48.882;9.210;2022-10-04T10:18:15;3.72;;;1.58;;
46334;SDS011;32051;48.882;9.210;2022-10-04T10:33:59;2.72;;;1.27;;
46334;SDS011;32051;48.882;9.210;2022-10-04T10:36:40;5.72;;;1.48;;
46334;SDS011;32051;48.882;9.210;2022-10-04T10:59:09;4.50;;;1.83;;
46334;SDS011;32051;48.882;9.210;2022-10-04T11:04:50;4.55;;;1.80;;
46334;SDS011;32051;48.882;9.210;2022-10-04T11:21:17;3.17;;;1.38;;
46334;SDS011;32051;48.882;9.210;2022-10-04T11:42:59;1.33;;;1.20;;
46334;SDS011;32051;48.882;9.210;2022-10-04T11:48:01;4.15;;;1.25;;
46334;SDS011;32051;48.882;9.210;2022-10-04T12:01:29;4.32;;;1.40;;
46334;SDS011;32051;48.882;9.210;2022-10-04T12:04:14;2.88;;;1.65;;
46334;SDS011;32051;48.882;9.210;2022-10-04T12:07:20;3.28;;;2.17;;
46334;SDS011;32051;48.882;9.210;2022-10-04T12:12:32;5.30;;;1.58;;
46334;SDS011;32051;48.882;9.210;2022-10-04T12:32:30;3.05;;;1.40;;
46334;SDS011;32051;48.882;9.210;2022-10-04T12:45:49;1.80;;;0.80;;
46334;SDS011;32051;48.882;9.210;2022-10-04T12:51:06;3.80;;;1.75;;
46334;SDS011;32051;48.882;9.210;2022-10-04T12:56:10;3.70;;;1.10;;
46334;SDS011;32051;48.882;9.210;2022-10-04T13:04:24;2.45;;;1.30;;
46334;SDS011;32051;48.882;9.210;2022-10-04T13:06:56;6.85;;;1.45;;
46334;SDS011;32051;48.882;9.210;2022-10-04T13:09:34;7.15;;;2.33;;
46334;SDS011;32051;48.882;9.210;2022-10-04T13:17:57;4.43;;;0.98;;
46334;SDS011;32051;48.882;9.210;2022-10-04T13:20:34;3.67;;;1.10;;
46334;SDS011;32051;48.882;9.210;2022-10-04T13:31:15;2.25;;;0.95;;
46334;SDS011;32051;48.882;9.210;2022-10-04T13:44:29;4.05;;;1.10;;
46334;SDS011;32051;48.882;9.210;2022-10-04T13:55:30;1.90;;;1.10;;
46334;SDS011;32051;48.882;9.210;2022-10-04T13:58:27;1.15;;;1.05;;
46334;SDS011;32051;48.882;9.210;2022-10-04T14:09:57;2.80;;;1.15;;
46334;SDS011;32051;48.882;9.210;2022-10-04T14:15:29;1.95;;;1.50;;
46334;SDS011;32051;48.882;9.210;2022-10-04T14:29:38;3.10;;;2.13;;
46334;SDS011;32051;48.882;9.210;2022-10-04T14:40:03;4.35;;;1.45;;
46334;SDS011;32051;48.882;9.210;2022-10-04T14:50:43;4.53;;;2.08;;
46334;SDS011;32051;48.882;9.210;2022-10-04T14:53:18;2.50;;;2.05;;
46334;SDS011;32051;48.882;9.210;2022-10-04T14:55:53;2.10;;;1.17;;
46334;SDS011;32051;48.882;9.210;2022-10-04T15:03:58;5.18;;;1.75;;
46334;SDS011;32051;48.882;9.210;2022-10-04T15:06:36;2.05;;;1.20;;
46334;SDS011;32051;48.882;9.210;2022-10-04T15:11:38;9.65;;;2.00;;
46334;SDS011;32051;48.882;9.210;2022-10-04T15:14:19;1.27;;;1.17;;
46334;SDS011;32051;48.882;9.210;2022-10-04T15:16:50;6.40;;;1.33;;
46334;SDS011;32051;48.882;9.210;2022-10-04T15:29:51;7.03;;;0.93;;
46334;SDS011;32051;48.882;9.210;2022-10-04T15:32:28;1.23;;;0.77;;
46334;SDS011;32051;48.882;9.210;2022-10-04T15:40:55;1.67;;;0.95;;
46334;SDS011;32051;48.882;9.210;2022-10-04T15:48:09;2.10;;;1.05;;
46334;SDS011;32051;48.882;9.210;2022-10-04T16:03:46;3.63;;;1.02;;
46334;SDS011;32051;48.882;9.210;2022-10-04T16:06:24;2.15;;;1.25;;
46334;SDS011;32051;48.882;9.210;2022-10-04T16:14:12;3.30;;;1.60;;
46334;SDS011;32051;48.882;9.210;2022-10-04T16:29:16;3.40;;;1.40;;
46334;SDS011;32051;48.882;9.210;2022-10-04T16:31:53;1.15;;;0.80;;
46334;SDS011;32051;48.882;9.210;2022-10-04T16:34:35;1.73;;;1.63;;
46334;SDS011;32051;48.882;9.210;2022-10-04T16:39:39;5.45;;;1.27;;
46334;SDS011;32051;48.882;9.210;2022-10-04T16:47:49;2.42;;;1.42;;
46334;SDS011;32051;48.882;9.210;2022-10-04T17:03:45;5.60;;;1.48;;
46334;SDS011;32051;48.882;9.210;2022-10-04T17:06:24;6.07;;;1.48;;
46334;SDS011;32051;48.882;9.210;2022-10-04T17:11:40;1.67;;;1.50;;
46334;SDS011;32051;48.882;9.210;2022-10-04T17:16:54;1.60;;;1.50;;
46334;SDS011;32051;48.882;9.210;2022-10-04T17:24:47;3.83;;;1.45;;
46334;SDS011;32051;48.882;9.210;2022-10-04T17:32:13;2.13;;;1.45;;
46334;SDS011;32051;48.882;9.210;2022-10-04T17:39:40;2.78;;;1.95;;
46334;SDS011;32051;48.882;9.210;2022-10-04T17:45:11;2.25;;;1.88;;
46334;SDS011;32051;48.882;9.210;2022-10-04T17:47:41;6.22;;;1.85;;
46334;SDS011;32051;48.882;9.210;2022-10-04T17:50:34;1.60;;;1.50;;
46334;SDS011;32051;48.882;9.210;2022-10-04T17:53:25;4.18;;;1.95;;
46334;SDS011;32051;48.882;9.210;2022-10-04T17:56:10;9.63;;;2.42;;
46334;SDS011;32051;48.882;9.210;2022-10-04T17:58:49;9.98;;;2.10;;
46334;SDS011;32051;48.882;9.210;2022-10-04T18:03:58;7.80;;;2.15;;
46334;SDS011;32051;48.882;9.210;2022-10-04T18:06:37;7.53;;;2.47;;
46334;SDS011;32051;48.882;9.210;2022-10-04T18:09:18;5.00;;;1.70;;
46334;SDS011;32051;48.882;9.210;2022-10-04T18:11:57;10.15;;;2.45;;
46334;SDS011;32051;48.882;9.210;2022-10-04T18:16:55;3.75;;;2.42;;
46334;SDS011;32051;48.882;9.210;2022-10-04T18:19:36;7.50;;;2.80;;
46334;SDS011;32051;48.882;9.210;2022-10-04T18:22:14;5.35;;;2.40;;
46334;SDS011;32051;48.882;9.210;2022-10-04T18:24:41;2.53;;;2.30;;
46334;SDS011;32051;48.882;9.210;2022-10-04T18:27:20;3.88;;;2.90;;
46334;SDS011;32051;48.882;9.210;2022-10-04T18:30:29;2.90;;;2.22;;
46334;SDS011;32051;48.882;9.210;2022-10-04T18:32:37;2.35;;;2.15;;
46334;SDS011;32051;48.882;9.210;2022-10-04T18:37:53;3.83;;;2.15;;
46334;SDS011;32051;48.882;9.210;2022-10-04T18:40:21;2.95;;;2.70;;
46334;SDS011;32051;48.882;9.210;2022-10-04T18:42:48;4.18;;;2.35;;
46334;SDS011;32051;48.882;9.210;2022-10-04T18:45:20;4.07;;;2.97;;
46334;SDS011;32051;48.882;9.210;2022-10-04T18:47:48;7.97;;;3.22;;
46334;SDS011;32051;48.882;9.210;2022-10-04T18:53:22;3.65;;;2.80;;
46334;SDS011;32051;48.882;9.210;2022-10-04T18:56:20;5.82;;;2.65;;
46334;SDS011;32051;48.882;9.210;2022-10-04T19:04:28;4.95;;;2.60;;
46334;SDS011;32051;48.882;9.210;2022-10-04T19:07:00;3.00;;;2.80;;
46334;SDS011;32051;48.882;9.210;2022-10-04T19:10:30;2.78;;;2.58;;
46334;SDS011;32051;48.882;9.210;2022-10-04T19:12:33;17.80;;;3.08;;
46334;SDS011;32051;48.882;9.210;2022-10-04T19:18:06;8.30;;;2.50;;
46334;SDS011;32051;48.882;9.210;2022-10-04T19:23:22;3.38;;;2.28;;
46334;SDS011;32051;48.882;9.210;2022-10-04T19:26:13;6.35;;;2.90;;
46334;SDS011;32051;48.882;9.210;2022-10-04T19:28:36;3.88;;;2.30;;
46334;SDS011;32051;48.882;9.210;2022-10-04T19:33:46;6.38;;;3.72;;
46334;SDS011;32051;48.882;9.210;2022-10-04T19:39:20;2.83;;;2.50;;
46334;SDS011;32051;48.882;9.210;2022-10-04T19:41:58;5.63;;;3.22;;
46334;SDS011;32051;48.882;9.210;2022-10-04T19:47:01;5.82;;;2.92;;
46334;SDS011;32051;48.882;9.210;2022-10-04T19:49:40;5.18;;;3.60;;
46334;SDS011;32051;48.882;9.210;2022-10-04T19:52:49;13.27;;;3.42;;
46334;SDS011;32051;48.882;9.210;2022-10-04T19:54:57;4.28;;;3.17;;
46334;SDS011;32051;48.882;9.210;2022-10-04T19:57:29;4.30;;;3.03;;
46334;SDS011;32051;48.882;9.210;2022-10-04T19:59:56;6.25;;;3.95;;
46334;SDS011;32051;48.882;9.210;2022-10-04T20:02:22;3.70;;;2.92;;
46334;SDS011;32051;48.882;9.210;2022-10-04T20:04:48;4.70;;;3.13;;
46334;SDS011;32051;48.882;9.210;2022-10-04T20:07:20;5.25;;;2.72;;
46334;SDS011;32051;48.882;9.210;2022-10-04T20:12:38;3.67;;;3.20;;
46334;SDS011;32051;48.882;9.210;2022-10-04T20:17:50;8.43;;;2.85;;
46334;SDS011;32051;48.882;9.210;2022-10-04T20:23:01;7.18;;;3.67;;
46334;SDS011;32051;48.882;9.210;2022-10-04T20:28:09;4.57;;;4.10;;
46334;SDS011;32051;48.882;9.210;2022-10-04T20:30:46;2.90;;;2.70;;
46334;SDS011;32051;48.882;9.210;2022-10-04T20:33:39;3.30;;;3.00;;
46334;SDS011;32051;48.882;9.210;2022-10-04T20:36:05;3.85;;;2.97;;
46334;SDS011;32051;48.882;9.210;2022-10-04T20:38:42;6.43;;;3.00;;
46334;SDS011;32051;48.882;9.210;2022-10-04T20:43:53;6.07;;;3.13;;
46334;SDS011;32051;48.882;9.210;2022-10-04T20:46:26;5.25;;;2.75;;
46334;SDS011;32051;48.882;9.210;2022-10-04T20:48:53;7.10;;;3.05;;
46334;SDS011;32051;48.882;9.210;2022-10-04T20:51:20;5.05;;;3.30;;
46334;SDS011;32051;48.882;9.210;2022-10-04T20:53:48;3.90;;;2.90;;
46334;SDS011;32051;48.882;9.210;2022-10-04T20:58:49;7.30;;;3.17;;
46334;SDS011;32051;48.882;9.210;2022-10-04T21:01:29;4.13;;;3.05;;
46334;SDS011;32051;48.882;9.210;2022-10-04T21:06:55;3.03;;;2.70;;
46334;SDS011;32051;48.882;9.210;2022-10-04T21:09:21;5.00;;;3.28;;
46334;SDS011;32051;48.882;9.210;2022-10-04T21:11:51;4.97;;;3.80;;
46334;SDS011;32051;48.882;9.210;2022-10-04T21:16:47;2.65;;;2.45;;
46334;SDS011;32051;48.882;9.210;2022-10-04T21:21:55;4.22;;;3.65;;
46334;SDS011;32051;48.882;9.210;2022-10-04T21:24:25;9.35;;;3.40;;
46334;SDS011;32051;48.882;9.210;2022-10-04T21:26:54;5.07;;;3.65;;
46334;SDS011;32051;48.882;9.210;2022-10-04T21:29:21;4.57;;;4.10;;
46334;SDS011;32051;48.882;9.210;2022-10-04T21:31:47;4.80;;;3.55;;
46334;SDS011;32051;48.882;9.210;2022-10-04T21:34:13;4.00;;;3.70;;
46334;SDS011;32051;48.882;9.210;2022-10-04T21:36:39;22.73;;;4.90;;
46334;SDS011;32051;48.882;9.210;2022-10-04T21:39:05;3.72;;;3.53;;
46334;SDS011;32051;48.882;9.210;2022-10-04T21:41:31;4.47;;;3.80;;
46334;SDS011;32051;48.882;9.210;2022-10-04T21:43:57;4.03;;;3.50;;
46334;SDS011;32051;48.882;9.210;2022-10-04T21:46:23;11.93;;;4.25;;
46334;SDS011;32051;48.882;9.210;2022-10-04T21:48:49;6.38;;;3.83;;
46334;SDS011;32051;48.882;9.210;2022-10-04T21:51:15;10.52;;;4.00;;
46334;SDS011;32051;48.882;9.210;2022-10-04T21:53:41;4.35;;;3.95;;
46334;SDS011;32051;48.882;9.210;2022-10-04T21:56:07;5.28;;;3.90;;
46334;SDS011;32051;48.882;9.210;2022-10-04T21:58:33;19.05;;;4.10;;
46334;SDS011;32051;48.882;9.210;2022-10-04T22:01:00;4.85;;;4.18;;
46334;SDS011;32051;48.882;9.210;2022-10-04T22:03:27;4.97;;;4.57;;
46334;SDS011;32051;48.882;9.210;2022-10-04T22:05:53;6.00;;;5.57;;
46334;SDS011;32051;48.882;9.210;2022-10-04T22:08:19;8.57;;;4.88;;
46334;SDS011;32051;48.882;9.210;2022-10-04T22:10:45;6.85;;;4.80;;
46334;SDS011;32051;48.882;9.210;2022-10-04T22:13:12;8.15;;;4.88;;
46334;SDS011;32051;48.882;9.210;2022-10-04T22:15:38;5.45;;;4.93;;
46334;SDS011;32051;48.882;9.210;2022-10-04T22:18:04;5.30;;;4.60;;
46334;SDS011;32051;48.882;9.210;2022-10-04T22:20:30;5.30;;;3.85;;
46334;SDS011;32051;48.882;9.210;2022-10-04T22:22:56;4.53;;;4.13;;
46334;SDS011;32051;48.882;9.210;2022-10-04T22:25:23;8.70;;;5.03;;
46334;SDS011;32051;48.882;9.210;2022-10-04T22:27:50;7.10;;;5.47;;
46334;SDS011;32051;48.882;9.210;2022-10-04T22:30:24;6.90;;;4.35;;
46334;SDS011;32051;48.882;9.210;2022-10-04T22:32:52;6.35;;;4.90;;
46334;SDS011;32051;48.882;9.210;2022-10-04T22:35:19;15.98;;;5.07;;
46334;SDS011;32051;48.882;9.210;2022-10-04T22:37:45;8.63;;;4.85;;
46334;SDS011;32051;48.882;9.210;2022-10-04T22:40:21;6.20;;;4.40;;
46334;SDS011;32051;48.882;9.210;2022-10-04T22:42:49;5.50;;;4.97;;
46334;SDS011;32051;48.882;9.210;2022-10-04T22:45:26;9.40;;;4.50;;
46334;SDS011;32051;48.882;9.210;2022-10-04T22:47:53;11.13;;;3.92;;
46334;SDS011;32051;48.882;9.210;2022-10-04T22:52:49;6.90;;;4.28;;
46334;SDS011;32051;48.882;9.210;2022-10-04T22:55:16;5.95;;;4.05;;
46334;SDS011;32051;48.882;9.210;2022-10-04T22:57:43;5.95;;;4.05;;
46334;SDS011;32051;48.882;9.210;2022-10-04T23:00:09;5.05;;;4.15;;
46334;SDS011;32051;48.882;9.210;2022-10-04T23:02:35;5.72;;;4.93;;
46334;SDS011;32051;48.882;9.210;2022-10-04T23:05:12;6.97;;;5.43;;
46334;SDS011;32051;48.882;9.210;2022-10-04T23:07:39;5.63;;;4.22;;
46334;SDS011;32051;48.882;9.210;2022-10-04T23:10:05;4.70;;;4.30;;
46334;SDS011;32051;48.882;9.210;2022-10-04T23:12:31;5.40;;;4.47;;
46334;SDS011;32051;48.882;9.210;2022-10-04T23:14:57;4.90;;;4.15;;
46334;SDS011;32051;48.882;9.210;2022-10-04T23:17:25;6.38;;;4.20;;
46334;SDS011;32051;48.882;9.210;2022-10-04T23:19:55;15.52;;;4.80;;
46334;SDS011;32051;48.882;9.210;2022-10-04T23:22:25;10.18;;;4.80;;
46334;SDS011;32051;48.882;9.210;2022-10-04T23:24:51;5.95;;;4.45;;
46334;SDS011;32051;48.882;9.210;2022-10-04T23:27:18;8.40;;;4.72;;
46334;SDS011;32051;48.882;9.210;2022-10-04T23:29:44;8.60;;;4.90;;
46334;SDS011;32051;48.882;9.210;2022-10-04T23:32:14;5.63;;;5.18;;
46334;SDS011;32051;48.882;9.210;2022-10-04T23:34:41;6.95;;;6.03;;
46334;SDS011;32051;48.882;9.210;2022-10-04T23:37:12;5.07;;;4.68;;
46334;SDS011;32051;48.882;9.210;2022-10-04T23:39:39;6.85;;;5.70;;
46334;SDS011;32051;48.882;9.210;2022-10-04T23:42:12;6.55;;;5.95;;
46334;SDS011;32051;48.882;9.210;2022-10-04T23:44:40;8.93;;;6.45;;
46334;SDS011;32051;48.882;9.210;2022-10-04T23:47:10;9.35;;;6.85;;
46334;SDS011;32051;48.882;9.210;2022-10-04T23:49:37;7.53;;;6.00;;
46334;SDS011;32051;48.882;9.210;2022-10-04T23:52:04;6.95;;;6.43;;
46334;SDS011;32051;48.882;9.210;2022-10-04T23:54:34;7.57;;;6.93;;
46334;SDS011;32051;48.882;9.210;2022-10-04T23:57:00;8.63;;;6.97;;
46334;SDS011;32051;48.882;9.210;2022-10-04T23:59:26;8.25;;;7.55;;
